• Join FlightAware (Why Join?)
  • Login
  • US Flag 
12:45AM EDT


 

Airport Tracker/Info


-or-


 

Live Flight TrackerFlight Track Log ✈ JIA2335 ✈ 09-May-2013 ✈ KPHL - KDAY

Flight Track Log - Related Links

Times and Time Zones

All times are in EDT time to prevent confusion due to time zone crossing. See the JIA2335 flight status page for this flight to view local times or setup timezone preferences in your user account.

Time Position Orientation Groundspeed Altitude Reporting Facility
EDT Latitude Longitude Course Direction KTS MPH feet Rate Location/Type
09:41AM 39.8833 -75.2000 270° West 158 182 900  Level Philadelphia TRACON
09:43AM 39.9167 -75.0833 70° East 233 268 4,800 2,520 Climbing Philadelphia TRACON
09:44AM 39.9000 -75.5722 270° West  Level FlightAware Approximate
09:44AM 39.9667 -75.0667 14° North 277 319 6,700  Level Philadelphia TRACON
09:45AM 39.9132 -75.6876 258° West  Level FlightAware Approximate
09:45AM 40.0000 -75.1500 298° West 278 320 9,800  Level Philadelphia TRACON
09:46AM 39.9000 -75.8045 270° West  Level FlightAware Approximate
09:46AM 39.9833 -75.2500 258° West 273 314 9,900  Level Philadelphia TRACON
09:47AM 39.9000 -75.9232 270° West  Level FlightAware Approximate
09:47AM 39.9667 -75.3333 255° West 267 307 10,000  Level Philadelphia TRACON
09:48AM 39.9500 -75.4333 258° West 274 315 10,000  Level Philadelphia TRACON
09:49AM 39.9386 -75.5222 261° West 296 341 10,000 600 Level New York Center
09:50AM 39.9239 -75.6269 260° West 296 341 11,300 2,160 Climbing New York Center
09:51AM 39.9172 -75.7375 266° West 301 346 14,300 2,460 Climbing New York Center
09:52AM 39.9125 -75.8481 267° West 306 352 16,300 2,040 Climbing New York Center
09:53AM 39.9117 -75.9644 270° West 311 358 18,400 1,860 Climbing New York Center
09:54AM 39.9106 -76.0808 269° West 318 366 20,100 1,560 Climbing New York Center
09:55AM 39.9114 -76.2025 271° West 329 379 21,700 1,440 Climbing New York Center
09:56AM 39.9103 -76.3136 269° West 334 384 23,000 1,380 Climbing New York Center
09:57AM 39.9169 -76.4386 274° West 341 392 24,500 1,440 Climbing New York Center
09:58AM 39.9211 -76.5661 272° West 351 404 26,000 1,500 Climbing New York Center
09:59AM 39.9256 -76.6883 273° West 351 404 27,500 1,380 Climbing New York Center
10:00AM 39.9319 -76.8081 274° West 346 398 28,800 1,020 Climbing New York Center
10:01AM 39.9358 -76.9356 272° West 346 398 29,600 720 Climbing New York Center
10:02AM 39.9394 -77.0606 272° West 352 405 30,300 660 Climbing New York Center
10:04AM 39.9558 -77.3925 274° West 362 417 32,000 480 Climbing Cleveland Center
10:05AM 39.9594 -77.5278 272° West 368 423 32,000  Level Cleveland Center
10:06AM 39.9650 -77.6631 273° West 368 423 32,000  Level Cleveland Center
10:07AM 39.9706 -77.7983 273° West 375 432 32,000  Level Cleveland Center
10:08AM 39.9717 -77.9336 271° West 375 432 32,000  Level Cleveland Center
10:09AM 39.9767 -78.0661 273° West 375 432 32,000  Level Cleveland Center
10:10AM 39.9817 -78.1989 273° West 375 432 32,000  Level Cleveland Center
10:11AM 39.9886 -78.3286 274° West 368 423 32,000  Level Cleveland Center
10:12AM 39.9953 -78.4558 274° West 362 417 32,000  Level Cleveland Center
10:13AM 40.0017 -78.5803 274° West 357 411 32,000  Level Cleveland Center
10:14AM 40.0081 -78.7075 274° West 357 411 32,000  Level Cleveland Center
10:15AM 40.0161 -78.8292 275° West 352 405 32,000  Level Cleveland Center
10:16AM 40.0222 -78.9539 274° West 347 399 32,000  Level Cleveland Center
10:17AM 40.0281 -79.0783 274° West 347 399 32,000  Level Cleveland Center
10:18AM 40.0339 -79.2031 274° West 347 399 32,000  Level Cleveland Center
10:19AM 40.0417 -79.3331 275° West 347 399 32,000  Level Cleveland Center
10:20AM 40.0469 -79.4603 273° West 352 405 32,000  Level Cleveland Center
10:21AM 40.0525 -79.5931 273° West 357 411 32,000  Level Cleveland Center
10:22AM 40.0597 -79.7097 275° West 357 411 32,000  Level Cleveland Center
10:23AM 40.0647 -79.8425 273° West 368 423 32,000  Level Cleveland Center
10:24AM 40.0697 -79.9781 273° West 368 423 32,000  Level Cleveland Center
10:25AM 40.0744 -80.1111 273° West 373 429 32,000  Level Cleveland Center
10:26AM 40.0833 -80.2467 275° West 373 429 32,000  Level Cleveland Center
10:27AM 40.0878 -80.3850 272° West 378 435 32,000  Level Cleveland Center
10:28AM 40.0942 -80.5206 274° West 383 441 32,000  Level Cleveland Center
10:29AM 40.0983 -80.6592 272° West 383 441 32,000  Level Cleveland Center
10:30AM 40.1025 -80.7947 272° West 383 441 32,000  Level Cleveland Center
10:33AM 40.1125 -81.1367 272° West 384 442 32,000 -120 Level Indianapolis Center
10:34AM 40.1167 -81.2778 272° West 384 442 31,700 -1,260 Descending Indianapolis Center
10:35AM 40.1214 -81.4158 273° West 377 434 29,400 -1,800 Descending Indianapolis Center
10:36AM 40.1250 -81.5514 272° West 369 425 28,000 -720 Descending Indianapolis Center
10:37AM 40.1292 -81.6975 272° West 344 396 28,000 -540 Level Indianapolis Center
10:38AM 40.1325 -81.8078 272° West 342 394 27,000 -1,260 Descending Indianapolis Center
10:39AM 40.1364 -81.9592 272° West 353 406 25,400 -1,440 Descending Indianapolis Center
10:40AM 40.1403 -82.0847 272° West 347 399 24,100 -1,200 Descending Indianapolis Center
10:41AM 40.1428 -82.2094 272° West 342 394 23,000 -600 Descending Indianapolis Center
10:42AM 40.1458 -82.3297 272° West 331 381 22,900 -120 Descending Indianapolis Center
10:43AM 40.1478 -82.4456 271° West 320 368 22,800 -660 Descending Indianapolis Center
10:44AM 40.1514 -82.5656 272° West 328 377 21,600 -1,140 Descending Indianapolis Center
10:45AM 40.1564 -82.6817 273° West 320 368 20,500 -1,200 Descending Indianapolis Center
10:46AM 40.1628 -82.8136 274° West 311 358 19,200 -1,200 Descending Indianapolis Center
10:47AM 40.1692 -82.9308 274° West 320 368 18,100 -1,020 Descending Indianapolis Center
10:48AM 40.1750 -83.0475 274° West 321 369 17,100 -1,080 Descending Indianapolis Center
10:49AM 40.1814 -83.1653 274° West 323 372 15,900 -1,200 Descending Indianapolis Center
10:50AM 40.1864 -83.2731 274° West 306 352 14,700 -1,320 Descending Indianapolis Center
10:50AM 40.1881 -83.3161 273° West 280 322 14,200 -1,200 Descending Indianapolis Center
10:51AM 40.1917 -83.3706 275° West 278 320 13,500 -1,200 Descending Indianapolis Center
10:51AM 40.1933 -83.4178 273° West 260 299 12,900 -1,380 Descending Indianapolis Center
10:52AM 40.1906 -83.4781 267° West 258 297 12,100 -1,200 Descending Indianapolis Center
10:52AM 40.1806 -83.5064 245° Southwest 253 291 11,700 -1,200 Descending Indianapolis Center
10:53AM 40.1617 -83.5600 245° Southwest 249 287 10,900 -1,320 Descending Indianapolis Center
10:54AM 40.1331 -83.6403 245° Southwest 244 281 9,500 -1,440 Descending Indianapolis Center
10:55AM 40.1031 -83.7244 245° Southwest 252 290 8,000 -1,500 Descending Indianapolis Center
10:56AM 40.0731 -83.8086 245° Southwest 255 293 6,500 -1,440 Descending Indianapolis Center
10:57AM 40.0589 -83.8486 245° Southwest 254 292 6,000 -780 Descending Indianapolis Center
10:57AM 40.0328 -83.9189 244° Southwest 255 293 5,600 -840 Descending Indianapolis Center
10:58AM 40.0081 -83.9889 245° Southwest 253 291 4,600 -1,140 Descending Indianapolis Center